Time;durP1;ratioP1;P1;durP2;ratioP2;P2;SDS_P1;SDS_P2;PMS_P1;PMS_P2;Temp;Humidity;BMP_temperature;BMP_pressure;BME280_temperature;BME280_humidity;BME280_pressure;Samples;Min_cycle;Max_cycle;Signal;HPM_P1;HPM_P2
2022/08/15 00:01:33;;;;;;;8.87;8.03;;;26.40;99.90;;;;;;5020351;28;20295;-51
2022/08/15 00:04:11;;;;;;;8.50;6.83;;;26.30;99.90;;;;;;5022003;28;20231;-51
2022/08/15 00:06:58;;;;;;;8.33;7.53;;;26.20;99.90;;;;;;5021524;28;20221;-51
2022/08/15 00:09:27;;;;;;;8.33;7.53;;;26.20;99.90;;;;;;5021942;28;20217;-52
2022/08/15 00:12:14;;;;;;;8.70;7.72;;;26.20;99.90;;;;;;5021210;28;20227;-50
2022/08/15 00:15:04;;;;;;;8.50;7.35;;;26.20;99.90;;;;;;5020416;28;20668;-52
2022/08/15 00:17:35;;;;;;;8.65;7.60;;;26.30;99.90;;;;;;5021457;28;20284;-52
2022/08/15 00:20:16;;;;;;;8.25;7.40;;;26.30;99.90;;;;;;5021674;28;20229;-51
2022/08/15 00:22:49;;;;;;;10.35;7.50;;;25.70;99.90;;;;;;5020978;28;20209;-51
2022/08/15 00:25:18;;;;;;;8.50;7.70;;;25.50;99.90;;;;;;5021992;28;20205;-51
2022/08/15 00:27:52;;;;;;;8.63;7.47;;;25.30;99.90;;;;;;5021023;28;20553;-51
2022/08/15 00:30:21;;;;;;;8.68;7.88;;;25.30;99.90;;;;;;5021559;28;20742;-52
2022/08/15 00:32:58;;;;;;;9.05;8.23;;;25.10;99.90;;;;;;5020079;28;20278;-50
2022/08/15 00:35:46;;;;;;;8.80;8.00;;;24.90;99.90;;;;;;5021137;28;20204;-52
2022/08/15 00:38:27;;;;;;;9.95;7.40;;;25.20;99.90;;;;;;5021871;28;20554;-50
2022/08/15 00:44:07;;;;;;;8.80;7.90;;;25.00;99.90;;;;;;5021389;28;20210;-52
2022/08/15 00:46:36;;;;;;;7.80;7.10;;;25.20;99.90;;;;;;5016082;28;20262;-53
2022/08/15 00:49:04;;;;;;;8.07;7.28;;;25.20;99.90;;;;;;5021485;28;20313;-52
2022/08/15 00:52:06;;;;;;;8.13;7.32;;;25.40;99.90;;;;;;5020749;28;20251;-52
2022/08/15 00:54:58;;;;;;;9.65;7.43;;;25.70;99.90;;;;;;5020920;28;20224;-52
2022/08/15 00:57:29;;;;;;;8.00;7.20;;;25.50;99.90;;;;;;5019948;28;20351;-51
2022/08/15 01:00:22;;;;;;;8.18;7.38;;;25.50;99.90;;;;;;5020789;28;20291;-52
2022/08/15 01:03:03;;;;;;;8.82;8.02;;;25.10;99.90;;;;;;5020400;28;20691;-51
2022/08/15 01:05:30;;;;;;;8.43;7.65;;;25.00;99.90;;;;;;5021272;28;20216;-52
2022/08/15 01:08:00;;;;;;;9.77;7.53;;;25.30;99.90;;;;;;5020497;28;20220;-52
2022/08/15 01:10:31;;;;;;;10.10;8.00;;;25.20;99.90;;;;;;5021210;28;20209;-50
2022/08/15 01:13:03;;;;;;;9.90;8.32;;;25.00;99.90;;;;;;5019692;28;20219;-51
2022/08/15 01:15:51;;;;;;;8.77;7.60;;;24.80;99.90;;;;;;5021350;28;20292;-52
2022/08/15 01:18:18;;;;;;;8.18;7.55;;;24.80;99.90;;;;;;5018974;28;20209;-51
2022/08/15 01:21:07;;;;;;;8.10;7.40;;;24.70;99.90;;;;;;5020889;28;20621;-50
2022/08/15 01:23:51;;;;;;;8.55;7.78;;;24.90;99.90;;;;;;5020558;28;20252;-50
2022/08/15 01:26:24;;;;;;;8.02;7.22;;;25.00;99.90;;;;;;5019542;28;20223;-52
2022/08/15 01:29:07;;;;;;;9.10;6.30;;;25.10;99.90;;;;;;5021143;28;20263;-52
2022/08/15 01:31:36;;;;;;;6.85;6.25;;;25.20;99.90;;;;;;5020007;28;20271;-50
2022/08/15 01:34:16;;;;;;;8.45;5.38;;;25.10;99.90;;;;;;5019636;28;20643;-51
2022/08/15 01:36:47;;;;;;;5.82;5.28;;;25.10;99.90;;;;;;5020347;28;20204;-53
2022/08/15 01:39:30;;;;;;;5.43;4.88;;;25.20;99.90;;;;;;5020120;28;20215;-52
2022/08/15 01:42:19;;;;;;;7.30;5.35;;;25.20;99.90;;;;;;5020121;28;20219;-53
2022/08/15 01:45:02;;;;;;;6.63;5.47;;;25.20;99.90;;;;;;5020443;28;20205;-53
2022/08/15 01:47:57;;;;;;;5.03;4.63;;;25.20;99.90;;;;;;5018462;28;20251;-52
2022/08/15 01:50:50;;;;;;;4.63;4.22;;;25.10;99.90;;;;;;5019531;28;20663;-52
2022/08/15 01:53:34;;;;;;;5.50;4.22;;;25.20;99.90;;;;;;5019882;28;20753;-51
2022/08/15 01:56:08;;;;;;;5.25;4.00;;;25.00;99.90;;;;;;5013692;28;20279;-52
2022/08/15 01:58:55;;;;;;;4.18;3.78;;;24.80;99.90;;;;;;5019996;28;20295;-52
2022/08/15 02:01:39;;;;;;;4.90;3.83;;;24.90;99.90;;;;;;5019624;28;20650;-52
2022/08/15 02:04:09;;;;;;;5.38;3.50;;;25.10;99.90;;;;;;5019857;28;20204;-51
2022/08/15 02:06:52;;;;;;;7.03;3.47;;;25.20;99.90;;;;;;5019741;28;20691;-51
2022/08/15 02:09:23;;;;;;;4.53;3.65;;;25.10;99.90;;;;;;5019191;28;20250;-52
2022/08/15 02:12:11;;;;;;;5.55;3.67;;;24.80;99.90;;;;;;5020089;28;20720;-52
2022/08/15 02:15:00;;;;;;;5.80;3.47;;;24.70;99.90;;;;;;5020397;28;20231;-51
2022/08/15 02:17:27;;;;;;;4.72;3.40;;;24.50;99.90;;;;;;5019490;28;20299;-51
2022/08/15 02:19:59;;;;;;;5.40;3.67;;;24.50;99.90;;;;;;5019919;28;20205;-50
2022/08/15 02:22:27;;;;;;;6.18;4.35;;;24.30;99.90;;;;;;5020222;28;20208;-51
2022/08/15 02:24:56;;;;;;;4.53;3.92;;;24.00;99.90;;;;;;5018892;28;20208;-51
2022/08/15 02:27:28;;;;;;;4.13;3.83;;;23.90;99.90;;;;;;5051724;28;20271;-52
2022/08/15 02:29:55;;;;;;;5.38;3.72;;;23.90;99.90;;;;;;5020047;28;20209;-52
2022/08/15 02:32:23;;;;;;;10.80;4.82;;;23.80;99.90;;;;;;5019845;28;20217;-51
2022/08/15 02:34:59;;;;;;;4.28;3.83;;;23.70;99.90;;;;;;5019784;28;20245;-51
2022/08/15 02:37:30;;;;;;;8.88;4.07;;;23.70;99.90;;;;;;5019096;28;20204;-51
2022/08/15 02:40:05;;;;;;;4.93;4.05;;;23.70;99.90;;;;;;5023367;28;20236;-52
2022/08/15 02:42:52;;;;;;;5.93;3.72;;;23.60;99.90;;;;;;5022616;28;20317;-52
2022/08/15 02:45:19;;;;;;;5.93;3.30;;;23.70;99.90;;;;;;5023996;28;20662;-51
2022/08/15 02:47:48;;;;;;;8.65;3.80;;;23.80;99.90;;;;;;5022550;28;20223;-50
2022/08/15 02:50:16;;;;;;;4.80;3.88;;;23.70;99.90;;;;;;5023420;28;20282;-51
2022/08/15 02:52:48;;;;;;;8.35;3.85;;;23.50;99.90;;;;;;5018168;28;20220;-50
2022/08/15 02:55:19;;;;;;;4.95;3.42;;;23.30;99.90;;;;;;5024385;28;20769;-52
2022/08/15 02:57:47;;;;;;;3.58;3.22;;;23.50;99.90;;;;;;5019170;28;20680;-53
2022/08/15 03:00:27;;;;;;;5.63;3.78;;;23.50;99.90;;;;;;5023521;28;20201;-52
2022/08/15 03:03:05;;;;;;;4.53;3.78;;;23.70;99.90;;;;;;5022428;28;20212;-50
2022/08/15 03:05:34;;;;;;;3.93;3.57;;;23.50;99.90;;;;;;5023453;28;20630;-52
2022/08/15 03:08:02;;;;;;;3.67;3.38;;;23.30;99.90;;;;;;5022898;28;20252;-52
2022/08/15 03:10:30;;;;;;;5.47;3.33;;;23.10;99.90;;;;;;5023150;28;20815;-50
2022/08/15 03:13:07;;;;;;;4.25;3.85;;;23.10;99.90;;;;;;5023087;28;20751;-52
2022/08/15 03:15:52;;;;;;;4.03;3.30;;;23.20;99.90;;;;;;5023322;28;20200;-51
2022/08/15 03:18:30;;;;;;;3.63;3.33;;;23.30;99.90;;;;;;5022062;28;20286;-51
2022/08/15 03:21:01;;;;;;;4.30;3.28;;;23.20;99.90;;;;;;5023099;28;20196;-51
2022/08/15 03:23:31;;;;;;;4.75;3.55;;;23.30;99.90;;;;;;5023532;28;20211;-52
2022/08/15 03:26:08;;;;;;;3.65;3.35;;;23.40;99.90;;;;;;5022231;28;20240;-51
2022/08/15 03:28:55;;;;;;;4.30;3.25;;;23.40;99.90;;;;;;5022862;28;20212;-50
2022/08/15 03:31:31;;;;;;;3.70;3.08;;;23.30;99.90;;;;;;5021447;28;20219;-51
2022/08/15 03:34:12;;;;;;;4.65;2.95;;;23.20;99.90;;;;;;5022416;28;20201;-52
2022/08/15 03:36:45;;;;;;;4.05;3.40;;;23.30;99.90;;;;;;5022667;28;20672;-53
2022/08/15 03:39:19;;;;;;;4.60;3.28;;;23.10;99.90;;;;;;5022019;28;20205;-51
2022/08/15 03:41:46;;;;;;;4.60;3.20;;;23.10;99.90;;;;;;5022044;28;20672;-51
2022/08/15 03:44:23;;;;;;;3.45;3.08;;;23.20;99.90;;;;;;5021740;28;20238;-51
2022/08/15 03:46:54;;;;;;;4.40;3.20;;;23.20;99.90;;;;;;5020667;28;20235;-50
2022/08/15 03:49:22;;;;;;;4.23;3.00;;;23.10;99.90;;;;;;5022213;28;20679;-52
2022/08/15 03:52:09;;;;;;;4.87;3.40;;;23.30;99.90;;;;;;5021933;28;20232;-52
2022/08/15 03:54:36;;;;;;;3.37;2.60;;;23.10;99.90;;;;;;5022538;28;20232;-51
2022/08/15 03:57:07;;;;;;;4.30;3.40;;;23.10;99.90;;;;;;5022096;28;20683;-52
2022/08/15 03:59:34;;;;;;;3.70;3.40;;;23.10;99.90;;;;;;5021396;28;20275;-50
2022/08/15 04:02:12;;;;;;;3.70;3.03;;;22.90;99.90;;;;;;5021515;28;20200;-50
2022/08/15 04:04:57;;;;;;;5.90;2.70;;;22.70;99.90;;;;;;5022045;28;20629;-51
2022/08/15 04:07:25;;;;;;;5.57;2.80;;;22.70;99.90;;;;;;5021936;28;20265;-52
2022/08/15 04:10:13;;;;;;;4.17;3.37;;;22.60;99.90;;;;;;5022544;28;20200;-52
2022/08/15 04:13:02;;;;;;;4.78;2.97;;;22.50;99.90;;;;;;5022248;28;20220;-52
2022/08/15 04:15:28;;;;;;;4.00;2.90;;;22.60;99.90;;;;;;5016236;28;20596;-51
2022/08/15 04:17:58;;;;;;;3.33;3.03;;;22.60;99.90;;;;;;5018120;28;20201;-51
2022/08/15 04:20:28;;;;;;;4.20;2.97;;;22.60;99.90;;;;;;5020859;28;20231;-51
2022/08/15 04:22:59;;;;;;;3.42;3.13;;;22.30;99.90;;;;;;5022207;28;20206;-51
2022/08/15 04:25:31;;;;;;;4.93;2.80;;;22.30;99.90;;;;;;5021606;28;20206;-52
2022/08/15 04:28:11;;;;;;;3.80;3.40;;;22.20;99.90;;;;;;5020884;28;20212;-51
2022/08/15 04:31:02;;;;;;;4.07;2.90;;;22.20;99.90;;;;;;5021655;28;20240;-52
2022/08/15 04:33:32;;;;;;;3.33;3.00;;;22.20;99.90;;;;;;5021011;28;20308;-51
2022/08/15 04:36:21;;;;;;;5.07;3.27;;;22.00;99.90;;;;;;5048014;28;20204;-51
2022/08/15 04:38:57;;;;;;;5.37;2.93;;;22.10;99.90;;;;;;5021237;28;20200;-50
2022/08/15 04:41:30;;;;;;;3.07;2.77;;;22.00;99.90;;;;;;5014410;28;20207;-51
2022/08/15 04:44:03;;;;;;;4.13;2.80;;;22.20;99.90;;;;;;5021644;28;20256;-51
2022/08/15 04:46:31;;;;;;;2.60;2.40;;;22.30;99.90;;;;;;5015108;28;20248;-52
2022/08/15 04:48:58;;;;;;;3.73;3.17;;;22.20;99.90;;;;;;5020962;28;20244;-50
2022/08/15 04:51:27;;;;;;;4.07;3.20;;;22.00;99.90;;;;;;5020705;28;20696;-50
2022/08/15 04:54:02;;;;;;;3.67;3.20;;;22.10;99.90;;;;;;5020065;28;20244;-50
2022/08/15 04:56:29;;;;;;;5.17;3.20;;;22.20;99.90;;;;;;5021646;28;20760;-51
2022/08/15 04:59:16;;;;;;;4.17;3.20;;;22.30;99.90;;;;;;5020940;28;20610;-50
2022/08/15 05:02:03;;;;;;;6.10;4.10;;;22.40;99.90;;;;;;5019911;28;20216;-51
2022/08/15 05:04:51;;;;;;;5.93;3.47;;;22.40;99.90;;;;;;5020829;28;20213;-51
2022/08/15 05:07:18;;;;;;;3.93;3.53;;;22.40;99.90;;;;;;5018697;28;20575;-50
2022/08/15 05:09:45;;;;;;;3.83;3.00;;;22.40;99.90;;;;;;5020570;28;20267;-50
2022/08/15 05:12:30;;;;;;;3.57;3.23;;;22.40;99.90;;;;;;5018976;28;20224;-52
2022/08/15 05:15:01;;;;;;;8.93;5.30;;;22.30;99.90;;;;;;5020883;28;20231;-52
2022/08/15 05:17:28;;;;;;;3.63;3.23;;;22.20;99.90;;;;;;5020221;28;20201;-52
2022/08/15 05:20:17;;;;;;;3.87;3.53;;;22.10;99.90;;;;;;5020910;28;20300;-49
2022/08/15 05:22:59;;;;;;;4.03;3.10;;;22.10;99.90;;;;;;5018029;28;20632;-52
2022/08/15 05:25:30;;;;;;;5.10;3.13;;;22.20;99.90;;;;;;5018888;28;20684;-52
2022/08/15 05:27:58;;;;;;;5.60;3.53;;;22.30;99.90;;;;;;5018761;28;20239;-52
2022/08/15 05:30:25;;;;;;;3.57;3.00;;;22.20;99.90;;;;;;5020491;28;20266;-51
2022/08/15 05:33:05;;;;;;;6.93;3.47;;;22.30;99.90;;;;;;5018409;28;20228;-53
2022/08/15 05:35:41;;;;;;;4.20;3.57;;;22.30;99.90;;;;;;5020129;28;20626;-52
2022/08/15 05:38:15;;;;;;;5.30;3.37;;;22.30;99.90;;;;;;5014783;28;20232;-50
2022/08/15 05:40:57;;;;;;;3.70;3.30;;;22.30;99.90;;;;;;5019935;28;20266;-51
2022/08/15 05:43:32;;;;;;;5.40;3.57;;;22.20;99.90;;;;;;5015633;28;20281;-51
2022/08/15 05:46:43;;;;;;;7.97;3.50;;;22.30;99.90;;;;;;5019928;28;20688;-52
2022/08/15 05:49:25;;;;;;;5.43;3.37;;;22.40;99.90;;;;;;5019991;28;20208;-51
2022/08/15 05:52:02;;;;;;;5.25;3.40;;;22.40;99.90;;;;;;5019959;28;20216;-52
2022/08/15 05:55:24;;;;;;;4.90;3.40;;;22.60;99.90;;;;;;5019699;28;20268;-51
2022/08/15 05:58:18;;;;;;;6.27;3.27;;;22.50;99.90;;;;;;5007142;28;20209;-52
2022/08/15 06:01:24;;;;;;;4.77;3.67;;;22.70;99.90;;;;;;5010335;28;20210;-52
2022/08/15 06:04:09;;;;;;;7.27;3.70;;;22.50;99.90;;;;;;5020814;28;20205;-49
2022/08/15 06:06:56;;;;;;;3.77;3.30;;;22.20;99.90;;;;;;5018788;28;20251;-52
2022/08/15 06:09:55;;;;;;;6.67;3.87;;;22.20;99.90;;;;;;5019932;28;20212;-50
2022/08/15 06:12:38;;;;;;;4.90;3.67;;;22.30;99.90;;;;;;5019001;28;20296;-52
2022/08/15 06:15:17;;;;;;;5.27;3.77;;;22.30;99.90;;;;;;5018885;28;20200;-51
2022/08/15 06:17:56;;;;;;;4.97;3.83;;;22.40;99.90;;;;;;5019174;28;20208;-51
2022/08/15 06:20:37;;;;;;;5.60;4.03;;;22.50;99.90;;;;;;5013656;28;20200;-51
2022/08/15 06:23:35;;;;;;;4.40;4.00;;;22.30;99.90;;;;;;5019345;28;20251;-50
2022/08/15 06:26:25;;;;;;;6.20;4.30;;;22.40;99.90;;;;;;5020030;28;20625;-51
2022/08/15 06:29:22;;;;;;;6.40;4.33;;;22.40;99.90;;;;;;5011742;28;20729;-51
2022/08/15 06:31:59;;;;;;;8.63;4.23;;;22.30;99.90;;;;;;5018820;28;20259;-51
2022/08/15 06:34:29;;;;;;;8.87;4.43;;;22.30;99.90;;;;;;5018945;28;20308;-51
2022/08/15 06:37:25;;;;;;;5.60;3.97;;;22.20;99.90;;;;;;5019283;28;20300;-49
2022/08/15 06:40:11;;;;;;;6.53;4.60;;;22.30;99.90;;;;;;5019937;28;20200;-50
2022/08/15 06:42:55;;;;;;;6.37;3.97;;;22.30;99.90;;;;;;5018695;28;20207;-51
2022/08/15 06:45:34;;;;;;;5.33;4.60;;;22.50;99.90;;;;;;5020080;28;20212;-51
2022/08/15 06:48:07;;;;;;;4.97;4.30;;;22.50;99.90;;;;;;5018541;28;20267;-52
2022/08/15 06:50:59;;;;;;;4.97;4.47;;;22.60;99.90;;;;;;5019325;28;20263;-51
2022/08/15 06:53:32;;;;;;;6.33;4.33;;;22.40;99.90;;;;;;5018891;28;20220;-52
2022/08/15 06:56:17;;;;;;;5.03;4.17;;;22.40;99.90;;;;;;5019622;28;20198;-51
2022/08/15 06:59:01;;;;;;;5.37;4.37;;;22.40;99.90;;;;;;5018449;28;20268;-52
2022/08/15 07:01:43;;;;;;;7.83;4.47;;;22.30;99.90;;;;;;5018722;28;20635;-50
2022/08/15 07:05:00;;;;;;;5.53;4.27;;;22.40;99.90;;;;;;5019154;28;20288;-50
2022/08/15 07:07:36;;;;;;;6.03;3.93;;;22.50;99.90;;;;;;5017676;28;20212;-51
2022/08/15 07:10:29;;;;;;;6.60;5.00;;;22.50;99.90;;;;;;5019537;28;20357;-52
2022/08/15 07:13:04;;;;;;;5.20;4.70;;;22.50;99.90;;;;;;5019476;28;20271;-51
2022/08/15 07:15:53;;;;;;;7.13;4.33;;;22.50;99.90;;;;;;5018786;28;20301;-51
2022/08/15 07:18:36;;;;;;;5.33;4.60;;;22.50;99.90;;;;;;5017427;28;20210;-52
2022/08/15 07:21:06;;;;;;;5.60;5.10;;;22.60;99.90;;;;;;5018613;28;20565;-50
2022/08/15 07:24:03;;;;;;;6.03;4.87;;;22.50;99.90;;;;;;5018976;28;20606;-50
2022/08/15 07:27:04;;;;;;;8.97;5.10;;;22.40;99.90;;;;;;5022461;28;20205;-50
2022/08/15 07:30:07;;;;;;;6.43;5.60;;;22.60;99.90;;;;;;5022033;28;20262;-52
2022/08/15 07:32:44;;;;;;;8.53;5.93;;;22.60;99.90;;;;;;5021849;28;20764;-51
2022/08/15 07:35:13;;;;;;;6.93;5.67;;;22.60;99.90;;;;;;5022757;28;20209;-51
2022/08/15 07:38:27;;;;;;;7.10;5.70;;;22.60;99.90;;;;;;5022447;28;20252;-51
2022/08/15 07:41:21;;;;;;;7.37;6.10;;;22.70;99.90;;;;;;4999371;28;20297;-51
2022/08/15 07:43:57;;;;;;;8.57;6.50;;;22.20;99.90;;;;;;5000789;28;20351;-52
2022/08/15 07:46:42;;;;;;;9.20;6.37;;;22.30;99.90;;;;;;4999617;28;20268;-50
2022/08/15 07:49:27;;;;;;;9.13;6.23;;;22.70;99.90;;;;;;4999799;28;20581;-50
2022/08/15 07:52:05;;;;;;;10.00;6.97;;;22.90;99.90;;;;;;4999341;28;20398;-49
2022/08/15 07:54:41;;;;;;;10.20;7.30;;;23.10;99.90;;;;;;5000390;28;20231;-51
2022/08/15 07:57:25;;;;;;;10.90;7.40;;;23.30;99.90;;;;;;4999480;28;20603;-50
2022/08/15 08:00:15;;;;;;;10.80;8.20;;;23.30;99.90;;;;;;4999807;28;20235;-50
2022/08/15 08:03:29;;;;;;;10.23;7.80;;;23.30;99.90;;;;;;4999883;28;20216;-51
2022/08/15 08:06:15;;;;;;;10.47;7.73;;;23.30;99.90;;;;;;4999634;28;20625;-50
2022/08/15 08:09:11;;;;;;;9.27;7.80;;;23.40;99.90;;;;;;4999833;28;20292;-50
2022/08/15 08:11:49;;;;;;;9.83;8.27;;;23.60;99.90;;;;;;5010647;28;20211;-51
2022/08/15 08:14:44;;;;;;;9.30;8.27;;;23.60;99.90;;;;;;5021476;28;20220;-51
2022/08/15 08:17:36;;;;;;;9.70;8.00;;;23.50;99.90;;;;;;5021680;28;20212;-52
2022/08/15 08:20:32;;;;;;;15.43;9.27;;;23.70;99.90;;;;;;5022476;28;20286;-51
2022/08/15 08:23:02;;;;;;;10.20;9.00;;;23.90;99.90;;;;;;5021555;28;20235;-52
2022/08/15 08:25:49;;;;;;;9.07;8.13;;;24.10;99.90;;;;;;5022382;28;20247;-50
2022/08/15 08:28:44;;;;;;;8.97;8.07;;;24.40;99.90;;;;;;5021707;28;20211;-50
2022/08/15 08:31:42;;;;;;;9.80;8.73;;;24.50;99.90;;;;;;5019120;28;20229;-51
2022/08/15 08:34:40;;;;;;;11.33;8.47;;;24.50;99.90;;;;;;5020747;28;20227;-51
2022/08/15 08:37:21;;;;;;;11.20;9.10;;;24.80;99.90;;;;;;5020324;28;20210;-50
2022/08/15 08:43:35;;;;;;;12.80;8.77;;;24.80;99.90;;;;;;5021316;28;20694;-52
2022/08/15 08:46:20;;;;;;;12.57;7.97;;;24.90;99.90;;;;;;5021368;28;20298;-51
2022/08/15 08:49:14;;;;;;;10.93;8.27;;;25.10;99.90;;;;;;5020159;28;20565;-50
2022/08/15 08:52:24;;;;;;;8.67;7.77;;;24.90;99.90;;;;;;5021339;28;20215;-51
2022/08/15 08:55:08;;;;;;;11.87;8.63;;;24.60;99.90;;;;;;5020664;28;20242;-52
2022/08/15 08:57:46;;;;;;;10.93;8.80;;;24.50;99.90;;;;;;5021038;28;20204;-52
2022/08/15 09:00:21;;;;;;;9.33;7.60;;;24.10;99.90;;;;;;5020467;28;20692;-52
2022/08/15 09:03:02;;;;;;;9.70;7.27;;;24.00;99.90;;;;;;5020685;28;20213;-52
2022/08/15 09:05:32;;;;;;;10.07;7.73;;;24.20;99.90;;;;;;5018947;28;20211;-52
2022/08/15 09:08:26;;;;;;;10.37;7.73;;;24.30;99.90;;;;;;5020647;28;20208;-51
2022/08/15 09:11:02;;;;;;;12.10;8.33;;;24.10;99.90;;;;;;5021059;28;20200;-51
2022/08/15 09:13:33;;;;;;;11.30;7.97;;;24.10;99.90;;;;;;5020965;28;20274;-52
2022/08/15 09:16:23;;;;;;;9.53;8.20;;;24.00;99.90;;;;;;5020509;28;20297;-50
2022/08/15 09:19:20;;;;;;;11.30;9.10;;;24.10;99.90;;;;;;5021322;28;20643;-52
2022/08/15 09:21:48;;;;;;;12.97;8.37;;;24.10;99.90;;;;;;5018634;28;20296;-50
2022/08/15 09:24:19;;;;;;;10.87;7.93;;;24.20;99.90;;;;;;5020047;28;20305;-52
2022/08/15 09:27:19;;;;;;;13.77;8.40;;;24.10;99.90;;;;;;5020236;28;20210;-51
2022/08/15 09:29:56;;;;;;;12.00;8.73;;;24.20;99.90;;;;;;5020108;28;20271;-51
2022/08/15 09:32:29;;;;;;;10.63;8.30;;;24.20;99.90;;;;;;5020542;28;20625;-53
2022/08/15 09:35:19;;;;;;;11.27;7.53;;;24.10;99.90;;;;;;5020546;28;20217;-52
2022/08/15 09:38:21;;;;;;;9.67;8.27;;;24.20;99.90;;;;;;5034285;28;20673;-50
2022/08/15 09:41:13;;;;;;;9.20;7.47;;;24.10;99.90;;;;;;5008344;28;20687;-51
2022/08/15 09:44:01;;;;;;;9.47;7.80;;;24.10;99.90;;;;;;5020315;28;20666;-51
2022/08/15 09:46:51;;;;;;;14.83;7.97;;;24.10;99.90;;;;;;5019140;28;20318;-51
2022/08/15 09:49:42;;;;;;;9.77;7.10;;;23.90;99.90;;;;;;5019783;28;20235;-51
2022/08/15 09:52:24;;;;;;;12.00;7.30;;;23.70;99.90;;;;;;5019092;28;20215;-51
2022/08/15 09:55:26;;;;;;;9.60;6.50;;;23.90;99.90;;;;;;5019650;28;20264;-50
2022/08/15 09:58:08;;;;;;;10.60;7.10;;;24.00;99.90;;;;;;5019962;28;20207;-50
2022/08/15 10:01:06;;;;;;;9.67;7.27;;;23.90;99.90;;;;;;5019092;28;20214;-51
2022/08/15 10:03:45;;;;;;;7.77;7.07;;;23.90;99.90;;;;;;5017742;28;20283;-50
2022/08/15 10:06:38;;;;;;;11.37;7.17;;;23.90;99.90;;;;;;5019232;28;20217;-50
2022/08/15 10:09:29;;;;;;;9.60;7.40;;;24.00;99.90;;;;;;5014136;28;20710;-51
2022/08/15 10:11:59;;;;;;;12.23;7.20;;;24.00;99.90;;;;;;5019383;28;20202;-51
2022/08/15 10:14:42;;;;;;;12.60;7.57;;;24.10;99.90;;;;;;5019794;28;20226;-51
2022/08/15 10:17:37;;;;;;;12.07;7.82;;;24.30;99.90;;;;;;5013961;28;20204;-51
2022/08/15 10:20:26;;;;;;;12.43;8.00;;;24.40;99.90;;;;;;5019900;28;20196;-51
2022/08/15 10:23:00;;;;;;;9.43;7.13;;;24.50;99.90;;;;;;5020090;28;20574;-54
2022/08/15 10:25:29;;;;;;;8.35;7.05;;;24.80;99.90;;;;;;5019627;28;20652;-53
2022/08/15 10:28:11;;;;;;;8.18;7.38;;;25.20;99.90;;;;;;5019327;28;20212;-52
2022/08/15 10:30:59;;;;;;;10.93;7.37;;;24.90;99.90;;;;;;5018660;28;20230;-51
2022/08/15 10:33:32;;;;;;;10.93;6.67;;;24.70;99.90;;;;;;5018973;28;20666;-51
2022/08/15 10:36:14;;;;;;;9.40;6.97;;;24.80;99.90;;;;;;5020001;28;20279;-52
2022/08/15 10:39:23;;;;;;;11.37;7.03;;;24.90;99.90;;;;;;5018276;28;20195;-52
2022/08/15 10:42:16;;;;;;;8.00;7.13;;;24.70;99.90;;;;;;5019788;28;20239;-50
2022/08/15 10:45:07;;;;;;;9.50;6.57;;;24.60;99.90;;;;;;5019177;28;20210;-50
2022/08/15 10:47:52;;;;;;;13.97;6.73;;;24.70;99.90;;;;;;5018234;28;20209;-51
2022/08/15 10:50:33;;;;;;;10.03;8.23;;;24.70;99.90;;;;;;5018816;28;20251;-50
2022/08/15 10:53:13;;;;;;;8.43;6.93;;;24.60;99.90;;;;;;5018711;28;20265;-49
2022/08/15 10:55:41;;;;;;;8.10;7.33;;;24.70;99.90;;;;;;5018865;28;20246;-51
2022/08/15 10:58:32;;;;;;;10.93;7.60;;;24.70;99.90;;;;;;5019851;28;20625;-52
2022/08/15 11:01:24;;;;;;;8.50;6.10;;;24.80;99.90;;;;;;5017419;28;20191;-51
2022/08/15 11:03:58;;;;;;;9.35;6.05;;;24.90;99.90;;;;;;5023207;28;20204;-50
2022/08/15 11:06:46;;;;;;;8.95;6.30;;;25.00;99.90;;;;;;5022760;28;20212;-52
2022/08/15 11:09:23;;;;;;;7.10;5.57;;;25.00;99.90;;;;;;5023858;28;20660;-51
2022/08/15 11:12:00;;;;;;;6.97;5.32;;;25.00;99.90;;;;;;5022749;28;20685;-52
2022/08/15 11:14:30;;;;;;;9.88;5.55;;;25.00;99.90;;;;;;5022452;28;20738;-51
2022/08/15 11:17:00;;;;;;;8.30;5.93;;;24.90;99.90;;;;;;5022804;28;20274;-50
2022/08/15 11:19:58;;;;;;;10.25;5.20;;;24.80;99.90;;;;;;5021574;28;20212;-51
2022/08/15 11:22:58;;;;;;;7.03;5.00;;;24.70;99.90;;;;;;5021610;28;20214;-50
2022/08/15 11:25:29;;;;;;;5.85;4.57;;;24.80;99.90;;;;;;5022620;28;20252;-50
2022/08/15 11:28:11;;;;;;;5.80;4.80;;;24.90;99.90;;;;;;5022105;28;20211;-50
2022/08/15 11:31:05;;;;;;;5.15;4.63;;;24.90;99.90;;;;;;5022091;28;20503;-49
2022/08/15 11:33:41;;;;;;;6.32;4.80;;;24.90;99.90;;;;;;5022636;28;20726;-51
2022/08/15 11:36:10;;;;;;;9.05;4.47;;;24.70;99.90;;;;;;5021844;28;20702;-50
2022/08/15 11:38:53;;;;;;;7.10;4.70;;;24.60;99.90;;;;;;5022097;28;20200;-51
2022/08/15 11:41:47;;;;;;;6.18;4.75;;;24.60;99.90;;;;;;5022568;28;20220;-51
2022/08/15 11:44:22;;;;;;;8.30;4.37;;;24.70;99.90;;;;;;5022857;28;20672;-50
2022/08/15 11:46:49;;;;;;;5.82;4.50;;;24.70;99.90;;;;;;5021738;28;20201;-50
2022/08/15 11:49:30;;;;;;;5.60;4.55;;;24.80;99.90;;;;;;5021460;28;20209;-52
2022/08/15 11:52:06;;;;;;;6.00;4.32;;;24.90;99.90;;;;;;5021801;28;20330;-50
2022/08/15 11:55:15;;;;;;;7.82;5.22;;;25.00;99.90;;;;;;5021809;28;20315;-52
2022/08/15 11:58:18;;;;;;;5.82;4.75;;;24.90;99.90;;;;;;5022636;28;20230;-51
2022/08/15 12:00:57;;;;;;;6.65;4.35;;;25.10;99.90;;;;;;5022447;28;20256;-52
2022/08/15 12:03:34;;;;;;;5.10;4.63;;;25.10;99.90;;;;;;5021669;28;20201;-52
2022/08/15 12:06:27;;;;;;;7.93;5.10;;;25.10;99.90;;;;;;5021414;28;20222;-51
2022/08/15 12:09:26;;;;;;;5.57;5.07;;;25.10;99.90;;;;;;5022015;28;20782;-51
2022/08/15 12:12:28;;;;;;;10.77;5.13;;;25.10;99.90;;;;;;5021921;28;20201;-53
2022/08/15 12:15:14;;;;;;;5.88;5.20;;;25.10;99.90;;;;;;5021761;28;20224;-51
2022/08/15 12:18:05;;;;;;;7.10;5.55;;;25.30;99.90;;;;;;5021155;28;20292;-52
2022/08/15 12:21:00;;;;;;;6.60;5.40;;;25.30;99.90;;;;;;5021892;28;20212;-51
2022/08/15 12:23:36;;;;;;;6.35;4.95;;;25.30;99.90;;;;;;5017802;28;20255;-52
2022/08/15 12:26:18;;;;;;;7.25;5.53;;;25.40;99.90;;;;;;5021685;28;20574;-51
2022/08/15 12:29:05;;;;;;;7.78;5.22;;;25.30;99.90;;;;;;5021431;28;20212;-51
2022/08/15 12:31:37;;;;;;;6.03;5.25;;;25.40;99.90;;;;;;5021666;28;20206;-51
2022/08/15 12:34:37;;;;;;;5.90;4.93;;;25.40;99.90;;;;;;5021610;28;20222;-51
2022/08/15 12:37:09;;;;;;;5.85;4.40;;;25.40;99.90;;;;;;5021572;28;20232;-51
2022/08/15 12:39:36;;;;;;;5.68;4.88;;;25.50;99.90;;;;;;5021318;28;20255;-50
2022/08/15 12:42:11;;;;;;;8.13;5.97;;;25.50;99.90;;;;;;5020771;28;20201;-52
2022/08/15 12:45:00;;;;;;;9.73;5.25;;;25.60;99.90;;;;;;5021804;28;20213;-50
2022/08/15 12:47:31;;;;;;;6.28;5.50;;;25.60;99.90;;;;;;5020227;28;20216;-52
2022/08/15 12:50:00;;;;;;;7.50;5.20;;;25.40;99.90;;;;;;5021369;28;20219;-52
2022/08/15 12:52:28;;;;;;;11.55;5.35;;;25.40;99.90;;;;;;5019954;28;20205;-52
2022/08/15 12:54:55;;;;;;;6.13;4.57;;;25.30;99.90;;;;;;5021137;28;20248;-50
2022/08/15 12:57:25;;;;;;;5.47;4.85;;;25.30;99.90;;;;;;5020480;28;20579;-50
2022/08/15 13:00:12;;;;;;;7.45;4.70;;;25.50;99.90;;;;;;5020945;28;20237;-51
2022/08/15 13:03:05;;;;;;;7.50;4.60;;;25.50;99.90;;;;;;5019770;28;20215;-50
2022/08/15 13:05:34;;;;;;;5.65;4.57;;;25.50;99.90;;;;;;5020762;28;20216;-52
2022/08/15 13:08:21;;;;;;;8.95;5.03;;;25.60;99.90;;;;;;5020673;28;20209;-52
2022/08/15 13:10:54;;;;;;;5.20;4.80;;;25.50;99.90;;;;;;5020690;28;20236;-52
2022/08/15 13:13:33;;;;;;;5.13;4.63;;;25.70;99.90;;;;;;5020925;28;20670;-50
2022/08/15 13:16:08;;;;;;;8.53;5.13;;;25.70;99.90;;;;;;5019995;28;20217;-51
2022/08/15 13:18:55;;;;;;;6.10;5.40;;;25.60;99.90;;;;;;5020455;28;20211;-49
2022/08/15 13:24:07;;;;;;;5.70;5.17;;;25.70;99.90;;;;;;5020586;28;20259;-51
2022/08/15 13:26:44;;;;;;;5.53;4.73;;;25.70;99.90;;;;;;5020781;28;20265;-51
2022/08/15 13:29:13;;;;;;;6.13;4.47;;;25.80;99.90;;;;;;5019888;28;20267;-51
2022/08/15 13:31:40;;;;;;;5.18;4.43;;;26.00;99.90;;;;;;5003213;28;20760;-51
2022/08/15 13:34:07;;;;;;;7.82;4.78;;;25.90;99.90;;;;;;5019867;28;20800;-50
2022/08/15 13:36:34;;;;;;;5.53;4.72;;;25.90;99.90;;;;;;5015349;28;20200;-51
2022/08/15 13:39:28;;;;;;;8.85;4.65;;;25.80;99.90;;;;;;5020171;28;20204;-50
2022/08/15 13:42:04;;;;;;;5.07;4.57;;;25.80;99.90;;;;;;5019836;28;20243;-50
2022/08/15 13:44:53;;;;;;;6.68;4.28;;;25.80;99.90;;;;;;5020146;28;20604;-51
2022/08/15 13:47:25;;;;;;;4.90;4.43;;;25.70;99.90;;;;;;5019029;28;20209;-50
2022/08/15 13:50:13;;;;;;;5.18;4.47;;;25.80;99.90;;;;;;5020089;28;20218;-52
2022/08/15 13:52:45;;;;;;;6.18;3.83;;;25.90;99.90;;;;;;5019344;28;20550;-51
2022/08/15 13:55:21;;;;;;;5.00;4.50;;;26.10;99.90;;;;;;5018243;28;20361;-51
2022/08/15 13:57:49;;;;;;;4.90;4.50;;;26.00;99.90;;;;;;5020327;28;20211;-51
2022/08/15 14:00:36;;;;;;;5.87;4.30;;;25.80;99.90;;;;;;5018481;28;20212;-50
2022/08/15 14:03:23;;;;;;;9.60;6.57;;;26.00;99.90;;;;;;5017894;28;20204;-50
2022/08/15 14:05:52;;;;;;;5.80;4.67;;;25.90;99.90;;;;;;5013293;28;20212;-51